Terminal Aerodrome Forecast
Issued by NWS Sioux Falls, SD

Home | Current Version | Previous Version | Text Only | Print | Product List | Glossary Off
Versions: 1 2 3 4 5 6 7 8 9 10 11 12 13 14 15 16 17 18 19 20 21 22 23 24 25 26 27 28 29 30 31 32 33 34 35 36

000
FTUS43 KFSD 232341
TAFSUX
TAF
KSUX 232341Z 2400/2424 13009KT P6SM OVC200
     FM240400 14009KT P6SM OVC080
     FM241100 13013G20KT P6SM SCT015 OVC060
      TEMPO 2413/2415 5SM -RA OVC015
     FM241500 12014KT 2SM -RA BR OVC012
     FM241800 13008KT 2SM -RA BR OVC008=

USA.gov is the U.S. government's official web portal to all federal, state and local government web resources and services.